sensor_id;sensor_type;location;lat;lon;timestamp;pressure;altitude;pressure_sealevel;temperature;humidity
19447;BME280;9862;49.462;11.054;2023-05-23T00:01:00;97651.38;;;21.60;100.00
19447;BME280;9862;49.462;11.054;2023-05-23T00:03:27;97651.84;;;21.67;100.00
19447;BME280;9862;49.462;11.054;2023-05-23T00:05:55;97652.97;;;21.61;100.00
19447;BME280;9862;49.462;11.054;2023-05-23T00:08:22;97651.50;;;21.50;100.00
19447;BME280;9862;49.462;11.054;2023-05-23T00:10:49;97655.31;;;21.49;100.00
19447;BME280;9862;49.462;11.054;2023-05-23T00:13:16;97650.97;;;21.48;100.00
19447;BME280;9862;49.462;11.054;2023-05-23T00:15:43;97657.03;;;21.40;100.00
19447;BME280;9862;49.462;11.054;2023-05-23T00:18:10;97659.84;;;21.30;100.00
19447;BME280;9862;49.462;11.054;2023-05-23T00:20:39;97658.75;;;21.31;100.00
19447;BME280;9862;49.462;11.054;2023-05-23T00:23:07;97656.50;;;21.38;100.00
19447;BME280;9862;49.462;11.054;2023-05-23T00:25:34;97655.19;;;21.35;100.00
19447;BME280;9862;49.462;11.054;2023-05-23T00:28:01;97663.66;;;21.29;100.00
19447;BME280;9862;49.462;11.054;2023-05-23T00:30:28;97668.00;;;21.25;100.00
19447;BME280;9862;49.462;11.054;2023-05-23T00:32:55;97674.63;;;21.13;100.00
19447;BME280;9862;49.462;11.054;2023-05-23T00:35:22;97669.03;;;21.00;100.00
19447;BME280;9862;49.462;11.054;2023-05-23T00:37:50;97655.47;;;21.05;100.00
19447;BME280;9862;49.462;11.054;2023-05-23T00:40:16;97676.31;;;21.04;100.00
19447;BME280;9862;49.462;11.054;2023-05-23T00:42:43;97666.63;;;20.98;100.00
19447;BME280;9862;49.462;11.054;2023-05-23T00:45:10;97669.84;;;21.00;100.00
19447;BME280;9862;49.462;11.054;2023-05-23T00:47:37;97671.72;;;20.71;100.00
19447;BME280;9862;49.462;11.054;2023-05-23T00:50:07;97673.03;;;20.78;100.00
19447;BME280;9862;49.462;11.054;2023-05-23T00:52:34;97671.94;;;20.79;100.00
19447;BME280;9862;49.462;11.054;2023-05-23T00:55:03;97679.47;;;20.82;100.00
19447;BME280;9862;49.462;11.054;2023-05-23T00:57:30;97673.25;;;20.82;100.00
19447;BME280;9862;49.462;11.054;2023-05-23T00:59:59;97678.13;;;20.85;100.00
19447;BME280;9862;49.462;11.054;2023-05-23T01:02:26;97673.25;;;20.82;100.00
19447;BME280;9862;49.462;11.054;2023-05-23T01:04:54;97676.56;;;20.74;100.00
19447;BME280;9862;49.462;11.054;2023-05-23T01:07:21;97674.41;;;20.76;100.00
19447;BME280;9862;49.462;11.054;2023-05-23T01:09:47;97677.34;;;20.79;100.00
19447;BME280;9862;49.462;11.054;2023-05-23T01:12:19;97671.59;;;20.86;100.00
19447;BME280;9862;49.462;11.054;2023-05-23T01:14:57;97671.06;;;20.84;100.00
19447;BME280;9862;49.462;11.054;2023-05-23T01:17:40;97666.72;;;20.88;100.00
19447;BME280;9862;49.462;11.054;2023-05-23T01:20:10;97666.50;;;20.84;100.00
19447;BME280;9862;49.462;11.054;2023-05-23T01:22:48;97668.84;;;20.91;100.00
19447;BME280;9862;49.462;11.054;2023-05-23T01:25:27;97665.09;;;20.87;100.00
19447;BME280;9862;49.462;11.054;2023-05-23T01:28:01;97659.69;;;20.87;100.00
19447;BME280;9862;49.462;11.054;2023-05-23T01:30:31;97661.72;;;21.00;100.00
19447;BME280;9862;49.462;11.054;2023-05-23T01:32:58;97669.81;;;21.05;100.00
19447;BME280;9862;49.462;11.054;2023-05-23T01:35:26;97659.84;;;21.01;100.00
19447;BME280;9862;49.462;11.054;2023-05-23T01:37:53;97676.06;;;21.01;100.00
19447;BME280;9862;49.462;11.054;2023-05-23T01:40:20;97668.00;;;20.96;100.00
19447;BME280;9862;49.462;11.054;2023-05-23T01:42:47;97668.91;;;20.86;100.00
19447;BME280;9862;49.462;11.054;2023-05-23T01:45:16;97664.81;;;20.89;100.00
19447;BME280;9862;49.462;11.054;2023-05-23T01:47:43;97664.00;;;20.88;100.00
19447;BME280;9862;49.462;11.054;2023-05-23T01:50:12;97673.22;;;20.87;100.00
19447;BME280;9862;49.462;11.054;2023-05-23T01:52:39;97673.25;;;20.82;100.00
19447;BME280;9862;49.462;11.054;2023-05-23T01:55:08;97666.31;;;20.71;100.00
19447;BME280;9862;49.462;11.054;2023-05-23T01:57:36;97669.31;;;20.69;100.00
19447;BME280;9862;49.462;11.054;2023-05-23T02:00:04;97675.53;;;20.70;100.00
19447;BME280;9862;49.462;11.054;2023-05-23T02:02:34;97674.16;;;20.72;100.00
19447;BME280;9862;49.462;11.054;2023-05-23T02:05:01;97674.88;;;20.49;100.00
19447;BME280;9862;49.462;11.054;2023-05-23T02:07:31;97681.66;;;20.41;100.00
19447;BME280;9862;49.462;11.054;2023-05-23T02:09:58;97684.13;;;20.33;100.00
19447;BME280;9862;49.462;11.054;2023-05-23T02:12:25;97672.75;;;20.36;100.00
19447;BME280;9862;49.462;11.054;2023-05-23T02:14:53;97674.59;;;20.45;100.00
19447;BME280;9862;49.462;11.054;2023-05-23T02:17:20;97670.84;;;20.46;100.00
19447;BME280;9862;49.462;11.054;2023-05-23T02:19:50;97678.09;;;20.51;100.00
19447;BME280;9862;49.462;11.054;2023-05-23T02:22:22;97676.19;;;20.56;100.00
19447;BME280;9862;49.462;11.054;2023-05-23T02:24:51;97678.41;;;20.39;100.00
19447;BME280;9862;49.462;11.054;2023-05-23T02:27:22;97670.34;;;20.34;100.00
19447;BME280;9862;49.462;11.054;2023-05-23T02:29:52;97672.00;;;20.30;100.00
19447;BME280;9862;49.462;11.054;2023-05-23T02:32:19;97667.41;;;20.25;100.00
19447;BME280;9862;49.462;11.054;2023-05-23T02:34:46;97671.41;;;20.33;100.00
19447;BME280;9862;49.462;11.054;2023-05-23T02:37:16;97675.19;;;20.37;100.00
19447;BME280;9862;49.462;11.054;2023-05-23T02:39:42;97674.09;;;20.43;100.00
19447;BME280;9862;49.462;11.054;2023-05-23T02:42:09;97680.59;;;20.37;100.00
19447;BME280;9862;49.462;11.054;2023-05-23T02:44:36;97691.13;;;20.39;100.00
19447;BME280;9862;49.462;11.054;2023-05-23T02:47:02;97688.16;;;20.35;100.00
19447;BME280;9862;49.462;11.054;2023-05-23T02:49:29;97701.13;;;20.38;100.00
19447;BME280;9862;49.462;11.054;2023-05-23T02:51:56;97697.88;;;20.46;100.00
19447;BME280;9862;49.462;11.054;2023-05-23T02:54:24;97692.41;;;20.56;100.00
19447;BME280;9862;49.462;11.054;2023-05-23T02:56:51;97693.00;;;20.43;100.00
19447;BME280;9862;49.462;11.054;2023-05-23T02:59:19;97698.66;;;20.42;100.00
19447;BME280;9862;49.462;11.054;2023-05-23T03:01:46;97694.13;;;20.37;100.00
19447;BME280;9862;49.462;11.054;2023-05-23T03:04:13;97703.28;;;20.36;100.00
19447;BME280;9862;49.462;11.054;2023-05-23T03:06:39;97705.53;;;20.24;100.00
19447;BME280;9862;49.462;11.054;2023-05-23T03:09:07;97706.63;;;20.23;100.00
19447;BME280;9862;49.462;11.054;2023-05-23T03:11:35;97711.00;;;20.14;100.00
19447;BME280;9862;49.462;11.054;2023-05-23T03:14:02;97715.88;;;20.12;100.00
19447;BME280;9862;49.462;11.054;2023-05-23T03:16:29;97707.81;;;20.01;100.00
19447;BME280;9862;49.462;11.054;2023-05-23T03:18:56;97710.56;;;19.86;100.00
19447;BME280;9862;49.462;11.054;2023-05-23T03:21:22;97710.06;;;19.79;100.00
19447;BME280;9862;49.462;11.054;2023-05-23T03:23:49;97713.03;;;19.78;100.00
19447;BME280;9862;49.462;11.054;2023-05-23T03:26:15;97720.88;;;19.79;100.00
19447;BME280;9862;49.462;11.054;2023-05-23T03:28:43;97720.88;;;19.79;100.00
19447;BME280;9862;49.462;11.054;2023-05-23T03:31:10;97723.53;;;19.84;100.00
19447;BME280;9862;49.462;11.054;2023-05-23T03:33:37;97724.38;;;19.80;100.00
19447;BME280;9862;49.462;11.054;2023-05-23T03:36:03;97726.25;;;19.84;100.00
19447;BME280;9862;49.462;11.054;2023-05-23T03:38:30;97732.72;;;19.83;100.00
19447;BME280;9862;49.462;11.054;2023-05-23T03:40:57;97744.63;;;19.77;100.00
19447;BME280;9862;49.462;11.054;2023-05-23T03:43:24;97744.66;;;19.72;100.00
19447;BME280;9862;49.462;11.054;2023-05-23T03:45:52;97749.78;;;19.73;100.00
19447;BME280;9862;49.462;11.054;2023-05-23T03:48:18;97746.28;;;19.68;100.00
19447;BME280;9862;49.462;11.054;2023-05-23T03:50:45;97752.22;;;19.65;100.00
19447;BME280;9862;49.462;11.054;2023-05-23T03:53:12;97747.38;;;19.62;100.00
19447;BME280;9862;49.462;11.054;2023-05-23T03:55:38;97751.13;;;19.66;100.00
19447;BME280;9862;49.462;11.054;2023-05-23T03:58:05;97741.69;;;19.58;100.00
19447;BME280;9862;49.462;11.054;2023-05-23T04:00:31;97744.69;;;19.57;100.00
19447;BME280;9862;49.462;11.054;2023-05-23T04:02:59;97745.22;;;19.64;100.00
19447;BME280;9862;49.462;11.054;2023-05-23T04:05:26;97748.72;;;19.64;100.00
19447;BME280;9862;49.462;11.054;2023-05-23T04:07:52;97746.84;;;19.50;100.00
19447;BME280;9862;49.462;11.054;2023-05-23T04:10:19;97747.66;;;19.35;100.00
19447;BME280;9862;49.462;11.054;2023-05-23T04:12:46;97744.16;;;19.24;100.00
19447;BME280;9862;49.462;11.054;2023-05-23T04:15:13;97750.66;;;19.23;100.00
19447;BME280;9862;49.462;11.054;2023-05-23T04:17:39;97752.00;;;19.26;100.00
19447;BME280;9862;49.462;11.054;2023-05-23T04:20:08;97753.63;;;19.32;100.00
19447;BME280;9862;49.462;11.054;2023-05-23T04:22:35;97752.78;;;19.36;100.00
19447;BME280;9862;49.462;11.054;2023-05-23T04:25:03;97761.44;;;19.33;100.00
19447;BME280;9862;49.462;11.054;2023-05-23T04:27:30;97757.09;;;19.37;100.00
19447;BME280;9862;49.462;11.054;2023-05-23T04:29:57;97760.06;;;19.36;100.00
19447;BME280;9862;49.462;11.054;2023-05-23T04:32:25;97759.81;;;19.42;100.00
19447;BME280;9862;49.462;11.054;2023-05-23T04:34:52;97762.78;;;19.41;100.00
19447;BME280;9862;49.462;11.054;2023-05-23T04:37:20;97765.72;;;19.39;100.00
19447;BME280;9862;49.462;11.054;2023-05-23T04:39:50;97766.78;;;19.49;100.00
19447;BME280;9862;49.462;11.054;2023-05-23T04:42:17;97777.06;;;19.36;100.00
19447;BME280;9862;49.462;11.054;2023-05-23T04:44:48;97768.16;;;19.36;100.00
19447;BME280;9862;49.462;11.054;2023-05-23T04:47:15;97782.75;;;19.40;100.00
19447;BME280;9862;49.462;11.054;2023-05-23T04:49:42;97780.06;;;19.40;100.00
19447;BME280;9862;49.462;11.054;2023-05-23T04:52:09;97780.59;;;19.37;100.00
19447;BME280;9862;49.462;11.054;2023-05-23T04:54:37;97783.03;;;19.33;100.00
19447;BME280;9862;49.462;11.054;2023-05-23T04:57:08;97781.41;;;19.32;100.00
19447;BME280;9862;49.462;11.054;2023-05-23T04:59:36;97780.03;;;19.30;100.00
19447;BME280;9862;49.462;11.054;2023-05-23T05:02:03;97783.53;;;19.45;100.00
19447;BME280;9862;49.462;11.054;2023-05-23T05:04:31;97788.38;;;19.49;100.00
19447;BME280;9862;49.462;11.054;2023-05-23T05:06:57;97789.47;;;19.37;100.00
19447;BME280;9862;49.462;11.054;2023-05-23T05:09:24;97784.09;;;19.42;100.00
19447;BME280;9862;49.462;11.054;2023-05-23T05:11:52;97789.78;;;19.41;100.00
19447;BME280;9862;49.462;11.054;2023-05-23T05:14:19;97790.59;;;19.31;100.00
19447;BME280;9862;49.462;11.054;2023-05-23T05:16:45;97786.78;;;19.42;100.00
19447;BME280;9862;49.462;11.054;2023-05-23T05:19:13;97797.03;;;19.45;100.00
19447;BME280;9862;49.462;11.054;2023-05-23T05:21:39;97812.16;;;19.26;100.00
19447;BME280;9862;49.462;11.054;2023-05-23T05:24:06;97804.09;;;19.11;100.00
19447;BME280;9862;49.462;11.054;2023-05-23T05:26:34;97810.00;;;19.13;100.00
19447;BME280;9862;49.462;11.054;2023-05-23T05:29:02;97804.34;;;19.25;100.00
19447;BME280;9862;49.462;11.054;2023-05-23T05:31:28;97807.31;;;19.18;100.00
19447;BME280;9862;49.462;11.054;2023-05-23T05:33:55;97806.22;;;19.24;100.00
19447;BME280;9862;49.462;11.054;2023-05-23T05:36:21;97812.97;;;19.32;100.00
19447;BME280;9862;49.462;11.054;2023-05-23T05:38:48;97800.31;;;19.32;100.00
19447;BME280;9862;49.462;11.054;2023-05-23T05:41:15;97805.41;;;19.34;100.00
19447;BME280;9862;49.462;11.054;2023-05-23T05:43:42;97795.97;;;19.31;100.00
19447;BME280;9862;49.462;11.054;2023-05-23T05:46:10;97807.03;;;19.25;100.00
19447;BME280;9862;49.462;11.054;2023-05-23T05:48:37;97806.47;;;19.38;100.00
19447;BME280;9862;49.462;11.054;2023-05-23T05:51:03;97807.59;;;19.42;100.00
19447;BME280;9862;49.462;11.054;2023-05-23T05:53:30;97803.00;;;19.42;100.00
19447;BME280;9862;49.462;11.054;2023-05-23T05:55:57;97804.34;;;19.50;100.00
19447;BME280;9862;49.462;11.054;2023-05-23T05:58:23;97810.28;;;19.52;100.00
19447;BME280;9862;49.462;11.054;2023-05-23T06:00:50;97807.31;;;19.64;100.00
19447;BME280;9862;49.462;11.054;2023-05-23T06:03:19;97799.19;;;19.74;100.00
19447;BME280;9862;49.462;11.054;2023-05-23T06:05:46;97813.25;;;19.51;100.00
19447;BME280;9862;49.462;11.054;2023-05-23T06:08:12;97819.19;;;19.58;100.00
19447;BME280;9862;49.462;11.054;2023-05-23T06:10:39;97811.34;;;19.51;100.00
19447;BME280;9862;49.462;11.054;2023-05-23T06:13:05;97813.50;;;19.44;100.00
19447;BME280;9862;49.462;11.054;2023-05-23T06:15:33;97810.00;;;19.38;100.00
19447;BME280;9862;49.462;11.054;2023-05-23T06:17:59;97813.25;;;19.51;100.00
19447;BME280;9862;49.462;11.054;2023-05-23T06:20:27;97813.25;;;19.56;100.00
19447;BME280;9862;49.462;11.054;2023-05-23T06:22:54;97807.59;;;19.42;100.00
19447;BME280;9862;49.462;11.054;2023-05-23T06:25:20;97822.16;;;19.51;100.00
19447;BME280;9862;49.462;11.054;2023-05-23T06:27:47;97827.81;;;19.50;100.00
19447;BME280;9862;49.462;11.054;2023-05-23T06:30:14;97827.81;;;19.24;100.00
19447;BME280;9862;49.462;11.054;2023-05-23T06:32:41;97821.88;;;19.53;100.00
19447;BME280;9862;49.462;11.054;2023-05-23T06:35:08;97823.78;;;19.62;100.00
19447;BME280;9862;49.462;11.054;2023-05-23T06:37:37;97819.44;;;19.77;100.00
19447;BME280;9862;49.462;11.054;2023-05-23T06:40:08;97823.47;;;19.89;100.00
19447;BME280;9862;49.462;11.054;2023-05-23T06:42:35;97821.63;;;19.69;100.00
19447;BME280;9862;49.462;11.054;2023-05-23T06:45:01;97825.94;;;19.60;100.00
19447;BME280;9862;49.462;11.054;2023-05-23T06:47:28;97827.25;;;19.48;100.00
19447;BME280;9862;49.462;11.054;2023-05-23T06:49:55;97822.97;;;19.62;100.00
19447;BME280;9862;49.462;11.054;2023-05-23T06:52:21;97823.50;;;19.64;100.00
19447;BME280;9862;49.462;11.054;2023-05-23T06:54:49;97826.44;;;19.78;100.00
19447;BME280;9862;49.462;11.054;2023-05-23T06:57:16;97823.47;;;19.84;100.00
19447;BME280;9862;49.462;11.054;2023-05-23T06:59:43;97829.44;;;19.76;100.00
19447;BME280;9862;49.462;11.054;2023-05-23T07:02:09;97838.34;;;19.66;100.00
19447;BME280;9862;49.462;11.054;2023-05-23T07:04:36;97843.75;;;19.51;100.00
19447;BME280;9862;49.462;11.054;2023-05-23T07:07:03;97843.47;;;19.78;100.00
19447;BME280;9862;49.462;11.054;2023-05-23T07:09:29;97841.28;;;19.95;100.00
19447;BME280;9862;49.462;11.054;2023-05-23T07:11:57;97847.78;;;19.84;100.00
19447;BME280;9862;49.462;11.054;2023-05-23T07:14:24;97848.34;;;19.56;100.00
19447;BME280;9862;49.462;11.054;2023-05-23T07:16:51;97847.53;;;19.70;100.00
19447;BME280;9862;49.462;11.054;2023-05-23T07:19:17;97870.47;;;19.78;100.00
19447;BME280;9862;49.462;11.054;2023-05-23T07:21:44;97860.47;;;19.53;100.00
19447;BME280;9862;49.462;11.054;2023-05-23T07:24:10;97868.31;;;19.65;100.00
19447;BME280;9862;49.462;11.054;2023-05-23T07:26:37;97858.59;;;19.54;100.00
19447;BME280;9862;49.462;11.054;2023-05-23T07:29:05;97861.00;;;19.45;100.00
19447;BME280;9862;49.462;11.054;2023-05-23T07:31:32;97848.91;;;19.63;100.00
19447;BME280;9862;49.462;11.054;2023-05-23T07:33:58;97860.78;;;19.62;100.00
19447;BME280;9862;49.462;11.054;2023-05-23T07:36:25;97851.06;;;19.56;100.00
19447;BME280;9862;49.462;11.054;2023-05-23T07:38:52;97851.81;;;19.46;100.00
19447;BME280;9862;49.462;11.054;2023-05-23T07:41:18;97874.78;;;19.43;100.00
19447;BME280;9862;49.462;11.054;2023-05-23T07:43:45;97865.06;;;19.37;100.00
19447;BME280;9862;49.462;11.054;2023-05-23T07:46:13;97871.00;;;19.24;100.00
19447;BME280;9862;49.462;11.054;2023-05-23T07:48:39;97873.41;;;19.26;100.00
19447;BME280;9862;49.462;11.054;2023-05-23T07:51:06;97877.75;;;19.47;100.00
19447;BME280;9862;49.462;11.054;2023-05-23T07:53:33;97866.97;;;19.57;100.00
19447;BME280;9862;49.462;11.054;2023-05-23T07:56:04;97867.78;;;19.73;100.00
19447;BME280;9862;49.462;11.054;2023-05-23T07:58:30;97869.38;;;19.84;100.00
19447;BME280;9862;49.462;11.054;2023-05-23T08:00:57;97870.97;;;19.95;100.00
19447;BME280;9862;49.462;11.054;2023-05-23T08:03:25;97874.78;;;19.94;100.00
19447;BME280;9862;49.462;11.054;2023-05-23T08:05:52;97871.00;;;19.85;100.00
19447;BME280;9862;49.462;11.054;2023-05-23T08:08:18;97878.81;;;19.87;100.00
19447;BME280;9862;49.462;11.054;2023-05-23T08:10:45;97881.81;;;19.85;100.00
19447;BME280;9862;49.462;11.054;2023-05-23T08:13:11;97878.56;;;19.83;100.00
19447;BME280;9862;49.462;11.054;2023-05-23T08:15:38;97876.94;;;19.87;100.00
19447;BME280;9862;49.462;11.054;2023-05-23T08:18:05;97869.31;;;20.15;100.00
19447;BME280;9862;49.462;11.054;2023-05-23T08:20:33;97870.63;;;20.33;100.00
19447;BME280;9862;49.462;11.054;2023-05-23T08:23:00;97871.38;;;20.58;100.00
19447;BME280;9862;49.462;11.054;2023-05-23T08:25:27;97853.03;;;20.35;100.00
19447;BME280;9862;49.462;11.054;2023-05-23T08:27:55;97864.41;;;20.37;100.00
19447;BME280;9862;49.462;11.054;2023-05-23T08:30:23;97862.50;;;20.48;100.00
19447;BME280;9862;49.462;11.054;2023-05-23T08:32:50;97872.47;;;20.52;100.00
19447;BME280;9862;49.462;11.054;2023-05-23T08:35:17;97876.81;;;20.48;100.00
19447;BME280;9862;49.462;11.054;2023-05-23T08:37:46;97878.72;;;20.43;100.00
19447;BME280;9862;49.462;11.054;2023-05-23T08:40:13;97877.09;;;20.47;100.00
19447;BME280;9862;49.462;11.054;2023-05-23T08:42:43;97879.25;;;20.50;100.00
19447;BME280;9862;49.462;11.054;2023-05-23T08:45:10;97882.75;;;20.45;100.00
19447;BME280;9862;49.462;11.054;2023-05-23T08:47:38;97890.06;;;20.40;100.00
19447;BME280;9862;49.462;11.054;2023-05-23T08:50:07;97893.09;;;20.23;100.00
19447;BME280;9862;49.462;11.054;2023-05-23T08:52:37;97889.25;;;20.34;100.00
19447;BME280;9862;49.462;11.054;2023-05-23T08:55:10;97890.88;;;20.35;100.00
19447;BME280;9862;49.462;11.054;2023-05-23T08:57:37;97905.78;;;20.22;100.00
19447;BME280;9862;49.462;11.054;2023-05-23T09:00:08;97903.91;;;20.13;100.00
19447;BME280;9862;49.462;11.054;2023-05-23T09:02:39;97886.59;;;20.29;100.00
19447;BME280;9862;49.462;11.054;2023-05-23T09:05:06;97903.06;;;20.43;100.00
19447;BME280;9862;49.462;11.054;2023-05-23T09:07:33;97900.88;;;20.35;100.00
19447;BME280;9862;49.462;11.054;2023-05-23T09:10:01;97902.22;;;20.42;100.00
19447;BME280;9862;49.462;11.054;2023-05-23T09:12:30;97901.69;;;20.40;100.00
19447;BME280;9862;49.462;11.054;2023-05-23T09:14:57;97902.25;;;20.32;100.00
19447;BME280;9862;49.462;11.054;2023-05-23T09:17:24;97907.63;;;20.42;100.00
19447;BME280;9862;49.462;11.054;2023-05-23T09:19:51;97905.44;;;20.60;100.00
19447;BME280;9862;49.462;11.054;2023-05-23T09:22:23;97906.78;;;20.62;100.00
19447;BME280;9862;49.462;11.054;2023-05-23T09:24:50;97908.97;;;20.60;100.00
19447;BME280;9862;49.462;11.054;2023-05-23T09:27:17;97910.84;;;20.54;100.00
19447;BME280;9862;49.462;11.054;2023-05-23T09:29:45;97906.84;;;20.47;100.00
19447;BME280;9862;49.462;11.054;2023-05-23T09:32:14;97906.81;;;20.57;100.00
19447;BME280;9862;49.462;11.054;2023-05-23T09:34:41;97913.28;;;20.66;100.00
19447;BME280;9862;49.462;11.054;2023-05-23T09:37:11;97921.38;;;20.61;100.00
19447;BME280;9862;49.462;11.054;2023-05-23T09:39:45;97920.22;;;20.82;100.00
19447;BME280;9862;49.462;11.054;2023-05-23T09:42:11;97906.63;;;20.93;100.00
19447;BME280;9862;49.462;11.054;2023-05-23T09:44:40;97918.31;;;20.88;100.00
19447;BME280;9862;49.462;11.054;2023-05-23T09:47:08;97927.03;;;20.65;100.00
19447;BME280;9862;49.462;11.054;2023-05-23T09:49:37;97934.91;;;20.66;100.00
19447;BME280;9862;49.462;11.054;2023-05-23T09:52:04;97932.19;;;20.66;100.00
19447;BME280;9862;49.462;11.054;2023-05-23T09:54:31;97931.41;;;20.66;100.00
19447;BME280;9862;49.462;11.054;2023-05-23T09:56:58;97930.88;;;20.53;100.00
19447;BME280;9862;49.462;11.054;2023-05-23T09:59:27;97934.06;;;20.71;100.00
19447;BME280;9862;49.462;11.054;2023-05-23T10:01:55;97938.34;;;20.87;100.00
19447;BME280;9862;49.462;11.054;2023-05-23T10:04:24;97937.13;;;21.08;100.00
19447;BME280;9862;49.462;11.054;2023-05-23T10:06:54;97936.94;;;20.95;100.00
19447;BME280;9862;49.462;11.054;2023-05-23T10:09:24;97937.13;;;21.08;100.00
19447;BME280;9862;49.462;11.054;2023-05-23T10:12:35;97928.03;;;20.89;100.00
19447;BME280;9862;49.462;11.054;2023-05-23T10:15:07;97931.69;;;20.59;100.00
19447;BME280;9862;49.462;11.054;2023-05-23T10:17:40;97930.84;;;20.64;100.00
19447;BME280;9862;49.462;11.054;2023-05-23T10:20:15;97944.94;;;20.45;100.00
19447;BME280;9862;49.462;11.054;2023-05-23T10:22:42;97933.56;;;20.53;100.00
19447;BME280;9862;49.462;11.054;2023-05-23T10:25:09;97928.09;;;20.79;100.00
19447;BME280;9862;49.462;11.054;2023-05-23T10:27:36;97935.72;;;20.67;100.00
19447;BME280;9862;49.462;11.054;2023-05-23T10:30:04;97935.69;;;20.77;100.00
19447;BME280;9862;49.462;11.054;2023-05-23T10:32:32;97936.19;;;20.74;100.00
19447;BME280;9862;49.462;11.054;2023-05-23T10:35:05;97938.38;;;20.72;100.00
19447;BME280;9862;49.462;11.054;2023-05-23T10:37:45;97936.16;;;20.94;100.00
19447;BME280;9862;49.462;11.054;2023-05-23T10:40:20;97938.28;;;20.97;100.00
19447;BME280;9862;49.462;11.054;2023-05-23T10:42:55;97939.84;;;21.03;100.00
19447;BME280;9862;49.462;11.054;2023-05-23T10:45:24;97948.88;;;20.89;100.00
19447;BME280;9862;49.462;11.054;2023-05-23T10:47:51;97943.88;;;20.56;100.00
19447;BME280;9862;49.462;11.054;2023-05-23T10:50:32;97948.19;;;20.52;100.00
19447;BME280;9862;49.462;11.054;2023-05-23T10:53:01;97955.19;;;20.53;100.00
19447;BME280;9862;49.462;11.054;2023-05-23T10:55:30;97948.72;;;20.54;100.00
19447;BME280;9862;49.462;11.054;2023-05-23T10:58:08;97950.84;;;20.63;100.00
19447;BME280;9862;49.462;11.054;2023-05-23T11:00:35;97961.13;;;20.55;100.00
19447;BME280;9862;49.462;11.054;2023-05-23T11:03:04;97948.22;;;20.47;100.00
19447;BME280;9862;49.462;11.054;2023-05-23T11:05:33;97964.41;;;20.42;100.00
19447;BME280;9862;49.462;11.054;2023-05-23T11:08:08;97966.31;;;20.57;100.00
19447;BME280;9862;49.462;11.054;2023-05-23T11:10:52;97960.00;;;20.77;100.00
19447;BME280;9862;49.462;11.054;2023-05-23T11:13:19;97967.94;;;20.43;100.00
19447;BME280;9862;49.462;11.054;2023-05-23T11:15:47;97957.94;;;20.38;100.00
19447;BME280;9862;49.462;11.054;2023-05-23T11:18:22;97989.00;;;20.41;100.00
19447;BME280;9862;49.462;11.054;2023-05-23T11:20:51;97980.88;;;20.36;100.00
19447;BME280;9862;49.462;11.054;2023-05-23T11:23:20;97964.97;;;20.24;100.00
19447;BME280;9862;49.462;11.054;2023-05-23T11:25:48;97966.59;;;20.15;100.00
19447;BME280;9862;49.462;11.054;2023-05-23T11:28:15;97970.38;;;20.14;100.00
19447;BME280;9862;49.462;11.054;2023-05-23T11:30:43;97966.03;;;20.48;100.00
19447;BME280;9862;49.462;11.054;2023-05-23T11:33:10;97969.22;;;20.71;100.00
19447;BME280;9862;49.462;11.054;2023-05-23T11:35:39;97963.53;;;20.77;100.00
19447;BME280;9862;49.462;11.054;2023-05-23T11:38:07;97962.06;;;21.00;100.00
19447;BME280;9862;49.462;11.054;2023-05-23T11:40:36;97964.44;;;21.12;100.00
19447;BME280;9862;49.462;11.054;2023-05-23T11:43:05;97967.19;;;21.02;100.00
19447;BME280;9862;49.462;11.054;2023-05-23T11:45:34;97956.22;;;20.78;100.00
19447;BME280;9862;49.462;11.054;2023-05-23T11:48:05;97965.16;;;20.78;100.00
19447;BME280;9862;49.462;11.054;2023-05-23T11:50:32;97958.19;;;20.52;100.00
19447;BME280;9862;49.462;11.054;2023-05-23T11:52:59;97965.47;;;20.41;100.00
19447;BME280;9862;49.462;11.054;2023-05-23T11:55:26;97958.47;;;20.50;100.00
19447;BME280;9862;49.462;11.054;2023-05-23T11:57:55;97966.03;;;20.53;100.00
19447;BME280;9862;49.462;11.054;2023-05-23T12:00:22;97974.91;;;20.64;100.00
19447;BME280;9862;49.462;11.054;2023-05-23T12:02:48;97959.78;;;20.63;100.00
19447;BME280;9862;49.462;11.054;2023-05-23T12:05:15;97959.00;;;20.57;100.00
19447;BME280;9862;49.462;11.054;2023-05-23T12:07:43;97954.69;;;20.56;100.00
19447;BME280;9862;49.462;11.054;2023-05-23T12:10:10;97966.50;;;20.71;100.00
19447;BME280;9862;49.462;11.054;2023-05-23T12:12:37;97977.38;;;20.40;100.00
19447;BME280;9862;49.462;11.054;2023-05-23T12:15:09;97966.06;;;20.13;100.00
19447;BME280;9862;49.462;11.054;2023-05-23T12:17:36;97957.41;;;20.46;100.00
19447;BME280;9862;49.462;11.054;2023-05-23T12:20:04;97976.88;;;20.28;100.00
19447;BME280;9862;49.462;11.054;2023-05-23T12:22:32;97962.78;;;20.26;100.00
19447;BME280;9862;49.462;11.054;2023-05-23T12:24:58;97982.78;;;20.40;100.00
19447;BME280;9862;49.462;11.054;2023-05-23T12:27:26;97979.00;;;20.26;100.00
19447;BME280;9862;49.462;11.054;2023-05-23T12:30:04;97963.34;;;20.23;100.00
19447;BME280;9862;49.462;11.054;2023-05-23T12:32:33;97969.53;;;20.34;100.00
19447;BME280;9862;49.462;11.054;2023-05-23T12:34:59;97983.63;;;20.30;100.00
19447;BME280;9862;49.462;11.054;2023-05-23T12:37:26;97981.75;;;20.00;100.00
19447;BME280;9862;49.462;11.054;2023-05-23T12:39:54;97969.88;;;19.71;100.00
19447;BME280;9862;49.462;11.054;2023-05-23T12:42:20;97974.09;;;19.47;100.00
19447;BME280;9862;49.462;11.054;2023-05-23T12:44:50;97977.91;;;19.51;100.00
19447;BME280;9862;49.462;11.054;2023-05-23T12:47:17;97977.38;;;19.54;100.00
19447;BME280;9862;49.462;11.054;2023-05-23T12:49:45;97980.09;;;19.59;100.00
19447;BME280;9862;49.462;11.054;2023-05-23T12:52:12;97971.47;;;19.72;100.00
19447;BME280;9862;49.462;11.054;2023-05-23T12:54:38;97979.56;;;19.87;100.00